createdAt,value
2018-08-30T00:00:35.118Z,14.23
2018-08-30T00:03:03.795Z,9.38
2018-08-30T00:05:32.456Z,9.63
2018-08-30T00:08:01.054Z,10.13
2018-08-30T00:10:29.783Z,14.28
2018-08-30T00:12:59.499Z,10.98
2018-08-30T00:15:28.476Z,9.48
2018-08-30T00:17:57.218Z,11.43
2018-08-30T00:20:39.505Z,11.10
2018-08-30T00:23:08.642Z,11.63
2018-08-30T00:25:37.371Z,11.03
2018-08-30T00:28:06.107Z,11.45
2018-08-30T00:30:48.327Z,11.48
2018-08-30T00:33:17.142Z,11.78
2018-08-30T00:35:46.419Z,12.00
2018-08-30T00:38:15.177Z,13.20
2018-08-30T00:40:44.074Z,10.45
2018-08-30T00:43:12.805Z,12.13
2018-08-30T00:45:41.207Z,12.15
2018-08-30T00:48:09.925Z,11.48
2018-08-30T00:50:38.504Z,13.33
2018-08-30T00:53:06.905Z,11.23
2018-08-30T00:55:35.436Z,11.57
2018-08-30T00:58:03.939Z,14.58
2018-08-30T01:03:34.610Z,11.37
2018-08-30T01:06:03.210Z,12.90
2018-08-30T01:08:32.443Z,14.53
2018-08-30T01:11:19.539Z,15.78
2018-08-30T01:13:48.850Z,16.02
2018-08-30T01:16:17.277Z,15.50
2018-08-30T01:18:45.799Z,14.58
2018-08-30T01:21:14.276Z,14.75
2018-08-30T01:23:43.195Z,14.28
2018-08-30T01:26:13.289Z,15.33
2018-08-30T01:28:41.690Z,14.10
2018-08-30T01:31:10.148Z,15.08
2018-08-30T01:33:38.734Z,14.83
2018-08-30T01:36:08.041Z,13.60
2018-08-30T01:38:36.937Z,12.97
2018-08-30T01:43:58.216Z,14.93
2018-08-30T01:46:26.811Z,14.53
2018-08-30T01:51:57.905Z,15.23
2018-08-30T01:54:26.521Z,15.78
2018-08-30T01:56:55.112Z,16.48
2018-08-30T01:59:46.252Z,14.27
2018-08-30T02:02:14.762Z,14.75
2018-08-30T02:04:43.376Z,12.97
2018-08-30T02:07:12.029Z,14.40
2018-08-30T02:09:40.539Z,16.32
2018-08-30T02:12:09.193Z,16.85
2018-08-30T02:14:37.912Z,14.73
2018-08-30T02:17:06.769Z,16.85
2018-08-30T02:19:57.968Z,17.73
2018-08-30T02:22:26.891Z,13.55
2018-08-30T02:24:55.371Z,15.32
2018-08-30T02:27:24.009Z,16.05
2018-08-30T02:29:52.555Z,15.55
2018-08-30T02:32:21.135Z,15.20
2018-08-30T02:34:50.582Z,15.80
2018-08-30T02:37:19.099Z,15.00
2018-08-30T02:39:47.641Z,14.65
2018-08-30T02:42:16.059Z,15.95
2018-08-30T02:44:44.809Z,15.65
2018-08-30T02:47:13.395Z,14.70
2018-08-30T02:49:41.983Z,16.50
2018-08-30T02:52:09.499Z,16.20
2018-08-30T02:54:38.131Z,16.05
2018-08-30T02:57:06.573Z,16.93
2018-08-30T02:59:44.783Z,18.27
2018-08-30T03:02:13.227Z,14.93
2018-08-30T03:04:41.707Z,15.73
2018-08-30T03:07:10.143Z,15.23
2018-08-30T03:09:39.074Z,17.55
2018-08-30T03:12:07.589Z,15.50
2018-08-30T03:14:36.324Z,17.90
2018-08-30T03:17:05.578Z,15.40
2018-08-30T03:19:34.158Z,18.48
2018-08-30T03:22:02.866Z,17.85
2018-08-30T03:24:31.315Z,15.80
2018-08-30T03:26:59.772Z,16.43
2018-08-30T03:29:28.213Z,14.90
2018-08-30T03:31:56.763Z,17.40
2018-08-30T03:34:25.339Z,14.58
2018-08-30T03:36:53.761Z,15.20
2018-08-30T03:39:22.368Z,15.58
2018-08-30T03:41:50.818Z,15.80
2018-08-30T03:44:19.241Z,16.50
2018-08-30T03:46:47.828Z,16.67
2018-08-30T03:49:16.270Z,16.45
2018-08-30T03:51:44.769Z,15.95
2018-08-30T03:54:13.575Z,17.00
2018-08-30T03:56:41.966Z,17.83
2018-08-30T03:59:11.089Z,16.50
2018-08-30T04:01:40.278Z,19.83
2018-08-30T04:04:08.781Z,19.02
2018-08-30T04:06:37.230Z,17.23
2018-08-30T04:09:28.449Z,16.97
2018-08-30T04:11:56.887Z,17.80
2018-08-30T04:14:25.705Z,17.27
2018-08-30T04:16:54.140Z,19.67
2018-08-30T04:19:27.627Z,18.52
2018-08-30T04:21:56.218Z,17.95
2018-08-30T04:24:24.700Z,20.10
2018-08-30T04:26:53.127Z,18.75
2018-08-30T04:29:21.578Z,17.85
2018-08-30T04:31:50.044Z,18.77
2018-08-30T04:34:18.906Z,19.98
2018-08-30T04:36:47.371Z,21.37
2018-08-30T04:39:15.810Z,17.83
2018-08-30T04:41:44.279Z,20.37
2018-08-30T04:44:12.861Z,22.80
2018-08-30T04:46:41.235Z,22.00
2018-08-30T04:52:02.181Z,20.23
2018-08-30T04:54:31.074Z,19.40
2018-08-30T04:56:59.484Z,20.90
2018-08-30T05:02:21.156Z,21.85
2018-08-30T05:04:49.673Z,18.45
2018-08-30T05:07:18.162Z,17.73
2018-08-30T05:09:46.600Z,21.35
2018-08-30T05:12:15.020Z,20.05
2018-08-30T05:14:43.635Z,19.15
2018-08-30T05:17:12.167Z,21.12
2018-08-30T05:22:33.770Z,22.13
2018-08-30T05:25:02.371Z,24.65
2018-08-30T05:27:30.838Z,21.45
2018-08-30T05:32:52.514Z,21.97
2018-08-30T05:35:21.180Z,21.77
2018-08-30T05:37:49.789Z,20.60
2018-08-30T05:40:18.282Z,22.32
2018-08-30T05:42:46.708Z,24.02
2018-08-30T05:45:15.285Z,24.15
2018-08-30T05:47:43.892Z,22.45
2018-08-30T05:50:21.919Z,22.05
2018-08-30T05:52:50.719Z,21.82
2018-08-30T05:55:19.352Z,20.60
2018-08-30T05:57:47.822Z,23.67
2018-08-30T06:00:16.243Z,25.48
2018-08-30T06:02:44.748Z,20.00
2018-08-30T06:05:13.164Z,21.87
2018-08-30T06:07:41.861Z,18.85
2018-08-30T06:10:10.305Z,18.60
2018-08-30T06:12:38.951Z,20.32
2018-08-30T06:15:07.414Z,19.57
2018-08-30T06:17:35.916Z,21.42
2018-08-30T06:20:04.492Z,23.35
2018-08-30T06:22:32.910Z,22.52
2018-08-30T06:25:01.324Z,23.60
2018-08-30T06:27:30.443Z,23.18
2018-08-30T06:29:58.971Z,27.30
2018-08-30T06:32:27.466Z,26.12
2018-08-30T06:34:55.850Z,26.97
2018-08-30T06:37:24.417Z,31.00
2018-08-30T06:39:54.034Z,25.95
2018-08-30T06:42:22.468Z,27.15
2018-08-30T06:44:50.952Z,29.32
2018-08-30T06:47:19.426Z,26.37
2018-08-30T06:49:47.856Z,30.23
2018-08-30T06:52:16.228Z,30.35
2018-08-30T06:54:44.813Z,29.63
2018-08-30T06:57:24.372Z,26.35
2018-08-30T06:59:57.141Z,30.72
2018-08-30T07:02:25.656Z,25.32
2018-08-30T07:04:55.734Z,25.88
2018-08-30T07:07:25.364Z,26.68
2018-08-30T07:09:53.975Z,31.57
2018-08-30T07:12:22.698Z,31.45
2018-08-30T07:14:51.279Z,29.27
2018-08-30T07:17:22.862Z,31.35
2018-08-30T07:20:00.727Z,29.02
2018-08-30T07:22:30.571Z,30.80
2018-08-30T07:25:00.909Z,30.97
2018-08-30T07:27:34.602Z,31.60
2018-08-30T07:30:03.283Z,31.40
2018-08-30T07:32:31.714Z,34.45
2018-08-30T07:35:00.496Z,32.65
2018-08-30T07:37:28.885Z,33.23
2018-08-30T07:39:57.350Z,36.80
2018-08-30T07:42:25.837Z,31.95
2018-08-30T07:44:54.321Z,32.73
2018-08-30T07:47:23.152Z,32.45
2018-08-30T07:49:51.570Z,29.82
2018-08-30T07:52:20.012Z,36.05
2018-08-30T07:54:48.444Z,30.50
2018-08-30T07:57:16.938Z,28.90
2018-08-30T07:59:50.410Z,28.12
2018-08-30T08:02:19.022Z,27.67
2018-08-30T08:04:47.553Z,26.30
2018-08-30T08:07:16.254Z,25.12
2018-08-30T08:09:44.780Z,24.50
2018-08-30T08:12:13.364Z,24.55
2018-08-30T08:14:41.890Z,26.45
2018-08-30T08:17:10.526Z,26.30
2018-08-30T08:20:01.690Z,22.40
2018-08-30T08:22:30.293Z,22.30
2018-08-30T08:25:01.339Z,20.45
2018-08-30T08:27:29.848Z,22.70
2018-08-30T08:29:59.190Z,20.50
2018-08-30T08:32:27.776Z,20.32
2018-08-30T08:34:56.283Z,19.15
2018-08-30T08:37:26.803Z,19.48
2018-08-30T08:39:55.258Z,17.70
2018-08-30T08:42:24.986Z,24.23
2018-08-30T08:44:53.602Z,21.57
2018-08-30T08:47:22.120Z,20.97
2018-08-30T08:49:50.856Z,23.30
2018-08-30T08:52:19.419Z,22.65
2018-08-30T08:54:52.001Z,21.20
2018-08-30T08:57:20.471Z,18.57
2018-08-30T08:59:49.617Z,19.52
2018-08-30T09:02:18.174Z,23.62
2018-08-30T09:04:46.666Z,22.58
2018-08-30T09:07:15.255Z,20.55
2018-08-30T09:09:44.006Z,21.25
2018-08-30T09:12:12.453Z,22.30
2018-08-30T09:14:41.183Z,21.90
2018-08-30T09:17:09.764Z,21.65
2018-08-30T09:19:38.314Z,22.48
2018-08-30T09:22:19.220Z,23.22
2018-08-30T09:24:59.193Z,23.50
2018-08-30T09:27:27.640Z,24.00
2018-08-30T09:29:56.837Z,24.47
2018-08-30T09:32:25.995Z,23.30
2018-08-30T09:34:55.251Z,22.50
2018-08-30T09:37:24.232Z,24.57
2018-08-30T09:39:52.700Z,23.20
2018-08-30T09:42:21.167Z,22.70
2018-08-30T09:44:49.734Z,19.27
2018-08-30T09:47:18.098Z,18.52
2018-08-30T09:49:51.667Z,19.40
2018-08-30T09:52:24.688Z,16.30
2018-08-30T09:54:53.533Z,16.93
2018-08-30T09:57:22.319Z,15.05
2018-08-30T09:59:50.856Z,16.30
2018-08-30T10:02:25.686Z,19.37
2018-08-30T10:07:33.989Z,16.62
2018-08-30T10:10:12.226Z,15.88
2018-08-30T10:12:41.738Z,14.60
2018-08-30T10:15:12.430Z,16.05
2018-08-30T10:17:41.167Z,15.60
2018-08-30T10:20:09.956Z,14.10
2018-08-30T10:22:38.576Z,16.87
2018-08-30T10:25:07.563Z,18.57
2018-08-30T10:27:36.131Z,14.65
2018-08-30T10:30:05.095Z,15.45
2018-08-30T10:32:34.194Z,14.35
2018-08-30T10:35:02.704Z,14.63
2018-08-30T10:37:31.646Z,14.95
2018-08-30T10:40:00.590Z,13.18
2018-08-30T10:42:29.400Z,17.10
2018-08-30T10:44:58.153Z,12.93
2018-08-30T10:47:27.050Z,17.10
2018-08-30T10:49:56.005Z,13.65
2018-08-30T10:52:25.027Z,13.10
2018-08-30T10:54:53.547Z,13.15
2018-08-30T10:57:22.260Z,10.45
2018-08-30T11:00:00.445Z,9.03
2018-08-30T11:02:30.398Z,8.30
2018-08-30T11:05:00.295Z,7.17
2018-08-30T11:07:29.628Z,8.85
2018-08-30T11:09:59.201Z,7.87
2018-08-30T11:12:29.544Z,9.05
2018-08-30T11:14:59.819Z,6.87
2018-08-30T11:17:28.841Z,6.37
2018-08-30T11:19:57.904Z,4.67
2018-08-30T11:22:26.845Z,5.00
2018-08-30T11:24:55.287Z,4.75
2018-08-30T11:27:27.328Z,4.25
2018-08-30T11:29:56.042Z,8.08
2018-08-30T11:32:25.098Z,4.10
2018-08-30T11:34:54.888Z,4.30
2018-08-30T11:37:23.814Z,5.20
2018-08-30T11:39:57.884Z,5.30
2018-08-30T11:42:26.913Z,6.03
2018-08-30T11:44:55.651Z,4.75
2018-08-30T11:47:24.766Z,4.65
2018-08-30T11:49:54.302Z,5.62
2018-08-30T11:52:23.308Z,5.95
2018-08-30T11:54:52.460Z,7.00
2018-08-30T11:57:21.735Z,8.08
2018-08-30T12:00:00.111Z,9.80
2018-08-30T12:02:30.761Z,9.60
2018-08-30T12:04:59.924Z,10.82
2018-08-30T12:07:29.472Z,10.30
2018-08-30T12:09:59.066Z,8.35
2018-08-30T12:12:27.954Z,8.58
2018-08-30T12:14:56.658Z,11.30
2018-08-30T12:17:26.393Z,7.35
2018-08-30T12:19:55.510Z,8.20
2018-08-30T12:22:24.943Z,12.82
2018-08-30T12:24:53.454Z,7.28
2018-08-30T12:27:22.454Z,7.15
2018-08-30T12:29:56.536Z,5.65
2018-08-30T12:32:25.541Z,6.17
2018-08-30T12:34:54.397Z,5.45
2018-08-30T12:37:23.257Z,5.65
2018-08-30T12:39:52.339Z,6.87
2018-08-30T12:42:21.527Z,7.72
2018-08-30T12:44:50.368Z,5.92
2018-08-30T12:47:19.262Z,7.45
2018-08-30T12:49:57.439Z,6.45
2018-08-30T12:52:26.600Z,6.50
2018-08-30T12:54:56.083Z,8.25
2018-08-30T12:57:25.027Z,8.38
2018-08-30T12:59:54.339Z,9.03
2018-08-30T13:02:23.713Z,7.58
2018-08-30T13:04:52.760Z,9.85
2018-08-30T13:07:23.739Z,9.03
2018-08-30T13:09:57.626Z,9.78
2018-08-30T13:12:26.663Z,11.70
2018-08-30T13:14:56.704Z,12.68
2018-08-30T13:17:26.567Z,12.05
2018-08-30T13:19:55.576Z,10.05
2018-08-30T13:22:24.375Z,12.88
2018-08-30T13:24:54.208Z,11.60
2018-08-30T13:27:23.911Z,11.40
2018-08-30T13:30:06.495Z,12.60
2018-08-30T13:32:35.469Z,14.07
2018-08-30T13:35:04.704Z,13.00
2018-08-30T13:37:34.543Z,13.38
2018-08-30T13:40:05.509Z,14.40
2018-08-30T13:42:34.669Z,14.60
2018-08-30T13:45:04.494Z,13.38
2018-08-30T13:47:34.517Z,15.00
2018-08-30T13:50:04.292Z,14.63
2018-08-30T13:52:33.832Z,14.45
2018-08-30T13:55:03.115Z,15.50
2018-08-30T13:57:32.291Z,15.80
2018-08-30T14:00:03.262Z,15.03
2018-08-30T14:02:32.917Z,14.38
2018-08-30T14:05:01.788Z,14.07
2018-08-30T14:07:30.552Z,13.90
2018-08-30T14:09:59.468Z,14.55
2018-08-30T14:12:28.907Z,19.20
2018-08-30T14:14:57.805Z,16.05
2018-08-30T14:17:26.215Z,15.83
2018-08-30T14:19:57.456Z,13.80
2018-08-30T14:22:27.224Z,15.88
2018-08-30T14:24:56.293Z,14.78
2018-08-30T14:27:25.389Z,17.60
2018-08-30T14:30:00.954Z,15.05
2018-08-30T14:32:30.038Z,15.38
2018-08-30T14:34:59.183Z,15.98
2018-08-30T14:37:29.975Z,15.63
2018-08-30T14:39:59.145Z,13.90
2018-08-30T14:42:28.908Z,15.35
2018-08-30T14:44:58.108Z,16.80
2018-08-30T14:47:27.112Z,13.50
2018-08-30T14:49:56.421Z,20.88
2018-08-30T14:52:25.550Z,15.50
2018-08-30T14:54:54.764Z,16.12
2018-08-30T14:57:24.688Z,14.58
2018-08-30T14:59:54.643Z,14.43
2018-08-30T15:02:23.803Z,12.95
2018-08-30T15:04:52.671Z,13.45
2018-08-30T15:07:21.816Z,14.90
2018-08-30T15:09:51.159Z,14.33
2018-08-30T15:15:00.329Z,13.93
2018-08-30T15:17:29.603Z,13.20
2018-08-30T15:19:58.411Z,11.55
2018-08-30T15:22:26.900Z,12.35
2018-08-30T15:24:55.334Z,9.98
2018-08-30T15:27:23.742Z,8.38
2018-08-30T15:29:52.307Z,11.30
2018-08-30T15:32:20.859Z,10.45
2018-08-30T15:34:49.434Z,13.15
2018-08-30T15:37:17.842Z,9.00
2018-08-30T15:39:46.428Z,11.12
2018-08-30T15:42:15.083Z,9.88
2018-08-30T15:44:45.847Z,9.10
2018-08-30T15:47:14.408Z,9.85
2018-08-30T15:49:42.977Z,9.45
2018-08-30T15:52:11.616Z,10.53
2018-08-30T15:54:40.124Z,10.28
2018-08-30T15:57:09.582Z,10.05
2018-08-30T15:59:40.420Z,10.75
2018-08-30T16:04:54.372Z,13.15
2018-08-30T16:07:22.779Z,10.60
2018-08-30T16:09:51.393Z,8.70
2018-08-30T16:12:20.319Z,8.78
2018-08-30T16:14:48.838Z,8.85
2018-08-30T16:17:17.529Z,9.85
2018-08-30T16:19:45.976Z,9.98
2018-08-30T16:22:14.394Z,10.60
2018-08-30T16:24:42.921Z,9.15
2018-08-30T16:27:11.502Z,11.80
2018-08-30T16:29:40.017Z,9.95
2018-08-30T16:32:08.647Z,9.88
2018-08-30T16:34:37.220Z,10.78
2018-08-30T16:37:05.713Z,11.35
2018-08-30T16:39:34.294Z,11.08
2018-08-30T16:42:02.847Z,13.43
2018-08-30T16:44:31.490Z,12.53
2018-08-30T16:47:00.071Z,14.95
2018-08-30T16:49:28.449Z,12.25
2018-08-30T16:51:57.125Z,11.05
2018-08-30T16:54:25.550Z,18.90
2018-08-30T16:56:54.006Z,14.05
2018-08-30T16:59:22.612Z,14.75
2018-08-30T17:01:51.428Z,18.07
2018-08-30T17:04:19.942Z,14.93
2018-08-30T17:06:48.404Z,12.20
2018-08-30T17:09:16.866Z,14.07
2018-08-30T17:11:45.240Z,12.53
2018-08-30T17:14:13.665Z,12.93
2018-08-30T17:16:42.067Z,12.90
2018-08-30T17:19:20.950Z,15.20
2018-08-30T17:21:49.411Z,12.23
2018-08-30T17:24:17.802Z,13.75
2018-08-30T17:26:46.163Z,11.97
2018-08-30T17:29:14.919Z,16.90
2018-08-30T17:31:43.357Z,14.55
2018-08-30T17:34:11.899Z,14.83
2018-08-30T17:36:40.443Z,14.83
2018-08-30T17:39:09.883Z,14.25
2018-08-30T17:41:41.941Z,13.90
2018-08-30T17:44:11.127Z,12.47
2018-08-30T17:46:40.756Z,11.70
2018-08-30T17:49:09.962Z,11.68
2018-08-30T17:51:38.892Z,11.60
2018-08-30T17:54:07.764Z,12.82
2018-08-30T17:56:36.724Z,13.28
2018-08-30T17:59:05.648Z,15.68
2018-08-30T18:01:35.778Z,12.58
2018-08-30T18:04:04.508Z,12.80
2018-08-30T18:06:34.254Z,12.18
2018-08-30T18:09:03.357Z,11.75
2018-08-30T18:11:32.013Z,10.40
2018-08-30T18:14:00.693Z,11.18
2018-08-30T18:16:29.165Z,11.12
2018-08-30T18:18:57.644Z,11.03
2018-08-30T18:21:26.460Z,13.60
2018-08-30T18:23:55.143Z,14.10
2018-08-30T18:26:23.634Z,11.70
2018-08-30T18:28:52.023Z,11.38
2018-08-30T18:31:20.624Z,11.55
2018-08-30T18:33:49.121Z,10.98
2018-08-30T18:36:17.719Z,13.20
2018-08-30T18:38:46.206Z,12.30
2018-08-30T18:41:14.669Z,14.43
2018-08-30T18:43:43.164Z,14.98
2018-08-30T18:46:11.893Z,13.53
2018-08-30T18:48:40.409Z,10.72
2018-08-30T18:51:08.993Z,12.50
2018-08-30T18:53:37.423Z,13.95
2018-08-30T18:56:05.979Z,12.65
2018-08-30T18:58:34.467Z,13.05
2018-08-30T19:01:02.956Z,11.25
2018-08-30T19:03:31.959Z,9.95
2018-08-30T19:06:00.747Z,10.88
2018-08-30T19:08:29.560Z,11.40
2018-08-30T19:11:03.620Z,8.88
2018-08-30T19:13:32.347Z,10.23
2018-08-30T19:16:06.452Z,12.70
2018-08-30T19:18:40.297Z,10.30
2018-08-30T19:21:26.587Z,8.75
2018-08-30T19:23:55.419Z,8.93
2018-08-30T19:26:23.908Z,11.85
2018-08-30T19:28:52.491Z,12.13
2018-08-30T19:31:21.253Z,10.43
2018-08-30T19:33:49.917Z,9.03
2018-08-30T19:36:23.547Z,11.22
2018-08-30T19:38:52.365Z,7.92
2018-08-30T19:41:22.499Z,9.38
2018-08-30T19:43:52.029Z,10.58
2018-08-30T19:46:21.324Z,9.28
2018-08-30T19:48:50.063Z,8.53
2018-08-30T19:51:24.073Z,7.62
2018-08-30T19:53:53.489Z,8.10
2018-08-30T19:56:22.109Z,8.65
2018-08-30T19:58:50.678Z,9.73
2018-08-30T20:01:19.157Z,8.23
2018-08-30T20:03:47.849Z,11.55
2018-08-30T20:06:16.460Z,8.33
2018-08-30T20:08:45.666Z,10.72
2018-08-30T20:11:14.318Z,8.35
2018-08-30T20:13:42.809Z,11.78
2018-08-30T20:16:11.651Z,8.78
2018-08-30T20:18:40.233Z,13.60
2018-08-30T20:21:10.452Z,11.38
2018-08-30T20:23:39.140Z,11.57
2018-08-30T20:26:07.642Z,8.90
2018-08-30T20:28:36.336Z,9.50
2018-08-30T20:31:09.969Z,8.40
2018-08-30T20:33:38.707Z,10.55
2018-08-30T20:36:07.550Z,19.50
2018-08-30T20:38:36.120Z,9.63
2018-08-30T20:41:09.693Z,9.98
2018-08-30T20:43:38.223Z,10.08
2018-08-30T20:46:07.128Z,10.10
2018-08-30T20:48:36.180Z,10.63
2018-08-30T20:51:04.765Z,11.50
2018-08-30T20:53:33.435Z,10.20
2018-08-30T20:56:02.149Z,8.75
2018-08-30T20:58:30.591Z,8.85
2018-08-30T21:00:59.182Z,9.88
2018-08-30T21:03:27.749Z,9.73
2018-08-30T21:05:56.278Z,11.05
2018-08-30T21:08:24.821Z,9.80
2018-08-30T21:10:53.435Z,10.68
2018-08-30T21:13:21.897Z,12.20
2018-08-30T21:15:50.497Z,10.38
2018-08-30T21:18:18.961Z,8.30
2018-08-30T21:20:47.527Z,10.55
2018-08-30T21:23:16.539Z,9.08
2018-08-30T21:25:45.620Z,7.45
2018-08-30T21:28:14.340Z,11.43
2018-08-30T21:30:43.013Z,9.23
2018-08-30T21:33:12.003Z,8.68
2018-08-30T21:35:41.225Z,9.53
2018-08-30T21:38:09.885Z,7.97
2018-08-30T21:40:38.491Z,7.15
2018-08-30T21:43:08.193Z,6.17
2018-08-30T21:45:37.653Z,7.57
2018-08-30T21:48:06.112Z,7.75
2018-08-30T21:50:48.337Z,7.53
2018-08-30T21:53:17.434Z,8.53
2018-08-30T21:55:46.950Z,8.53
2018-08-30T21:58:16.205Z,9.53
2018-08-30T22:00:45.355Z,9.68
2018-08-30T22:03:20.068Z,10.30
2018-08-30T22:05:54.269Z,10.63
2018-08-30T22:08:23.232Z,8.10
2018-08-30T22:10:52.533Z,10.03
2018-08-30T22:13:22.857Z,11.73
2018-08-30T22:15:52.092Z,11.48
2018-08-30T22:18:21.786Z,10.53
2018-08-30T22:20:51.462Z,10.05
2018-08-30T22:23:20.919Z,10.50
2018-08-30T22:25:50.006Z,8.25
2018-08-30T22:28:18.763Z,7.10
2018-08-30T22:30:48.198Z,11.28
2018-08-30T22:33:18.181Z,10.03
2018-08-30T22:35:47.103Z,8.30
2018-08-30T22:38:15.888Z,9.63
2018-08-30T22:40:45.309Z,11.18
2018-08-30T22:43:14.168Z,10.53
2018-08-30T22:45:42.672Z,10.15
2018-08-30T22:48:11.546Z,9.28
2018-08-30T22:50:40.701Z,11.12
2018-08-30T22:53:10.356Z,7.28
2018-08-30T22:55:39.720Z,9.23
2018-08-30T22:58:08.609Z,7.10
2018-08-30T23:00:37.120Z,9.30
2018-08-30T23:03:05.668Z,11.03
2018-08-30T23:05:34.148Z,10.95
2018-08-30T23:08:02.626Z,9.73
2018-08-30T23:10:31.255Z,8.93
2018-08-30T23:12:59.734Z,12.10
2018-08-30T23:15:28.212Z,7.37
2018-08-30T23:17:56.621Z,8.73
2018-08-30T23:20:25.100Z,13.70
2018-08-30T23:22:53.629Z,8.23
2018-08-30T23:25:22.195Z,10.68
2018-08-30T23:27:50.566Z,10.37
2018-08-30T23:30:19.060Z,9.23
2018-08-30T23:32:47.524Z,10.82
2018-08-30T23:35:15.962Z,7.30
2018-08-30T23:37:45.128Z,10.28
2018-08-30T23:40:13.605Z,6.62
2018-08-30T23:42:42.937Z,12.28
2018-08-30T23:45:11.400Z,9.35
2018-08-30T23:47:39.839Z,9.55
2018-08-30T23:50:08.314Z,8.55
2018-08-30T23:52:36.935Z,13.28
2018-08-30T23:55:05.544Z,7.87
2018-08-30T23:57:34.029Z,11.30
